sensor_id;sensor_type;location;lat;lon;timestamp;P1;P2;P0
62591;PMS5003;48659;41.622;2.276;2022-11-27T00:01:32;39;39;
62591;PMS5003;48659;41.622;2.276;2022-11-27T00:04:02;42;40;
62591;PMS5003;48659;41.622;2.276;2022-11-27T00:06:31;38;37;
62591;PMS5003;48659;41.622;2.276;2022-11-27T00:09:00;44;42;
62591;PMS5003;48659;41.622;2.276;2022-11-27T00:11:30;39;35;
62591;PMS5003;48659;41.622;2.276;2022-11-27T00:13:59;33;32;
62591;PMS5003;48659;41.622;2.276;2022-11-27T00:16:26;34;31;
62591;PMS5003;48659;41.622;2.276;2022-11-27T00:18:54;37;37;
62591;PMS5003;48659;41.622;2.276;2022-11-27T00:21:21;39;37;
62591;PMS5003;48659;41.622;2.276;2022-11-27T00:23:51;39;38;
62591;PMS5003;48659;41.622;2.276;2022-11-27T00:26:20;40;38;
62591;PMS5003;48659;41.622;2.276;2022-11-27T00:28:48;41;39;
62591;PMS5003;48659;41.622;2.276;2022-11-27T00:31:17;40;36;
62591;PMS5003;48659;41.622;2.276;2022-11-27T00:33:45;40;34;
62591;PMS5003;48659;41.622;2.276;2022-11-27T00:36:14;40;38;
62591;PMS5003;48659;41.622;2.276;2022-11-27T00:38:42;41;38;
62591;PMS5003;48659;41.622;2.276;2022-11-27T00:41:10;43;37;
62591;PMS5003;48659;41.622;2.276;2022-11-27T00:43:40;38;34;
62591;PMS5003;48659;41.622;2.276;2022-11-27T00:46:08;36;33;
62591;PMS5003;48659;41.622;2.276;2022-11-27T00:48:35;32;31;
62591;PMS5003;48659;41.622;2.276;2022-11-27T00:51:03;35;33;
62591;PMS5003;48659;41.622;2.276;2022-11-27T00:53:31;37;32;
62591;PMS5003;48659;41.622;2.276;2022-11-27T00:55:59;40;36;
62591;PMS5003;48659;41.622;2.276;2022-11-27T00:58:29;42;36;
62591;PMS5003;48659;41.622;2.276;2022-11-27T01:00:58;42;39;
62591;PMS5003;48659;41.622;2.276;2022-11-27T01:03:26;41;37;
62591;PMS5003;48659;41.622;2.276;2022-11-27T01:05:55;33;33;
62591;PMS5003;48659;41.622;2.276;2022-11-27T01:08:27;37;34;
62591;PMS5003;48659;41.622;2.276;2022-11-27T01:10:55;39;36;
62591;PMS5003;48659;41.622;2.276;2022-11-27T01:13:24;38;35;
62591;PMS5003;48659;41.622;2.276;2022-11-27T01:15:58;38;36;
62591;PMS5003;48659;41.622;2.276;2022-11-27T01:18:27;39;36;
62591;PMS5003;48659;41.622;2.276;2022-11-27T01:20:54;41;39;
62591;PMS5003;48659;41.622;2.276;2022-11-27T01:23:22;35;29;
62591;PMS5003;48659;41.622;2.276;2022-11-27T01:25:50;33;30;
62591;PMS5003;48659;41.622;2.276;2022-11-27T01:28:17;37;36;
62591;PMS5003;48659;41.622;2.276;2022-11-27T01:30:45;35;30;
62591;PMS5003;48659;41.622;2.276;2022-11-27T01:33:13;34;30;
62591;PMS5003;48659;41.622;2.276;2022-11-27T01:35:41;38;34;
62591;PMS5003;48659;41.622;2.276;2022-11-27T01:38:08;30;28;
62591;PMS5003;48659;41.622;2.276;2022-11-27T01:40:35;27;27;
62591;PMS5003;48659;41.622;2.276;2022-11-27T01:43:02;31;30;
62591;PMS5003;48659;41.622;2.276;2022-11-27T01:45:32;33;29;
62591;PMS5003;48659;41.622;2.276;2022-11-27T01:48:00;33;31;
62591;PMS5003;48659;41.622;2.276;2022-11-27T01:50:30;29;28;
62591;PMS5003;48659;41.622;2.276;2022-11-27T01:53:02;41;37;
62591;PMS5003;48659;41.622;2.276;2022-11-27T01:55:36;31;30;
62591;PMS5003;48659;41.622;2.276;2022-11-27T01:58:09;33;33;
62591;PMS5003;48659;41.622;2.276;2022-11-27T02:00:39;34;31;
62591;PMS5003;48659;41.622;2.276;2022-11-27T02:03:06;40;35;
62591;PMS5003;48659;41.622;2.276;2022-11-27T02:05:34;41;41;
62591;PMS5003;48659;41.622;2.276;2022-11-27T02:08:06;36;35;
62591;PMS5003;48659;41.622;2.276;2022-11-27T02:10:39;42;40;
62591;PMS5003;48659;41.622;2.276;2022-11-27T02:13:15;35;31;
62591;PMS5003;48659;41.622;2.276;2022-11-27T02:15:49;29;28;
62591;PMS5003;48659;41.622;2.276;2022-11-27T02:18:25;32;30;
62591;PMS5003;48659;41.622;2.276;2022-11-27T02:20:58;28;26;
62591;PMS5003;48659;41.622;2.276;2022-11-27T02:23:48;27;24;
62591;PMS5003;48659;41.622;2.276;2022-11-27T02:27:02;27;24;
62591;PMS5003;48659;41.622;2.276;2022-11-27T02:29:37;34;34;
62591;PMS5003;48659;41.622;2.276;2022-11-27T02:32:09;35;32;
62591;PMS5003;48659;41.622;2.276;2022-11-27T02:34:47;28;25;
62591;PMS5003;48659;41.622;2.276;2022-11-27T02:37:20;33;30;
62591;PMS5003;48659;41.622;2.276;2022-11-27T02:39:56;37;32;
62591;PMS5003;48659;41.622;2.276;2022-11-27T02:42:30;31;30;
62591;PMS5003;48659;41.622;2.276;2022-11-27T02:45:03;36;29;
62591;PMS5003;48659;41.622;2.276;2022-11-27T02:47:35;29;26;
62591;PMS5003;48659;41.622;2.276;2022-11-27T02:50:06;25;25;
62591;PMS5003;48659;41.622;2.276;2022-11-27T02:52:37;28;26;
62591;PMS5003;48659;41.622;2.276;2022-11-27T02:55:08;27;26;
62591;PMS5003;48659;41.622;2.276;2022-11-27T02:57:39;39;35;
62591;PMS5003;48659;41.622;2.276;2022-11-27T03:00:09;32;31;
62591;PMS5003;48659;41.622;2.276;2022-11-27T03:02:38;33;32;
62591;PMS5003;48659;41.622;2.276;2022-11-27T03:05:12;30;29;
62591;PMS5003;48659;41.622;2.276;2022-11-27T03:07:46;29;27;
62591;PMS5003;48659;41.622;2.276;2022-11-27T03:10:19;25;25;
62591;PMS5003;48659;41.622;2.276;2022-11-27T03:12:51;27;26;
62591;PMS5003;48659;41.622;2.276;2022-11-27T03:15:19;31;29;
62591;PMS5003;48659;41.622;2.276;2022-11-27T03:17:51;34;30;
62591;PMS5003;48659;41.622;2.276;2022-11-27T03:20:22;30;30;
62591;PMS5003;48659;41.622;2.276;2022-11-27T03:22:53;43;38;
62591;PMS5003;48659;41.622;2.276;2022-11-27T03:25:22;31;27;
62591;PMS5003;48659;41.622;2.276;2022-11-27T03:27:51;26;26;
62591;PMS5003;48659;41.622;2.276;2022-11-27T03:30:23;30;28;
62591;PMS5003;48659;41.622;2.276;2022-11-27T03:32:51;33;29;
62591;PMS5003;48659;41.622;2.276;2022-11-27T03:35:19;28;27;
62591;PMS5003;48659;41.622;2.276;2022-11-27T03:37:50;37;34;
62591;PMS5003;48659;41.622;2.276;2022-11-27T03:40:18;32;30;
62591;PMS5003;48659;41.622;2.276;2022-11-27T03:42:54;28;27;
62591;PMS5003;48659;41.622;2.276;2022-11-27T03:45:31;31;29;
62591;PMS5003;48659;41.622;2.276;2022-11-27T03:48:07;30;28;
62591;PMS5003;48659;41.622;2.276;2022-11-27T03:50:45;34;33;
62591;PMS5003;48659;41.622;2.276;2022-11-27T03:53:22;27;25;
62591;PMS5003;48659;41.622;2.276;2022-11-27T03:56:10;21;20;
62591;PMS5003;48659;41.622;2.276;2022-11-27T03:58:44;15;15;
62591;PMS5003;48659;41.622;2.276;2022-11-27T04:01:15;25;19;
62591;PMS5003;48659;41.622;2.276;2022-11-27T04:03:46;18;15;
62591;PMS5003;48659;41.622;2.276;2022-11-27T04:06:13;15;15;
62591;PMS5003;48659;41.622;2.276;2022-11-27T04:08:42;21;19;
62591;PMS5003;48659;41.622;2.276;2022-11-27T04:11:10;17;16;
62591;PMS5003;48659;41.622;2.276;2022-11-27T04:13:38;23;21;
62591;PMS5003;48659;41.622;2.276;2022-11-27T04:16:06;18;17;
62591;PMS5003;48659;41.622;2.276;2022-11-27T04:18:33;23;20;
62591;PMS5003;48659;41.622;2.276;2022-11-27T04:21:06;24;22;
62591;PMS5003;48659;41.622;2.276;2022-11-27T04:23:34;22;21;
62591;PMS5003;48659;41.622;2.276;2022-11-27T04:26:02;26;22;
62591;PMS5003;48659;41.622;2.276;2022-11-27T04:28:30;24;23;
62591;PMS5003;48659;41.622;2.276;2022-11-27T04:30:57;22;18;
62591;PMS5003;48659;41.622;2.276;2022-11-27T04:33:24;20;19;
62591;PMS5003;48659;41.622;2.276;2022-11-27T04:35:52;29;22;
62591;PMS5003;48659;41.622;2.276;2022-11-27T04:38:19;26;23;
62591;PMS5003;48659;41.622;2.276;2022-11-27T04:40:47;34;27;
62591;PMS5003;48659;41.622;2.276;2022-11-27T04:43:17;32;31;
62591;PMS5003;48659;41.622;2.276;2022-11-27T04:45:44;23;21;
62591;PMS5003;48659;41.622;2.276;2022-11-27T04:48:12;28;26;
62591;PMS5003;48659;41.622;2.276;2022-11-27T04:50:40;27;27;
62591;PMS5003;48659;41.622;2.276;2022-11-27T04:53:07;24;22;
62591;PMS5003;48659;41.622;2.276;2022-11-27T04:55:34;28;28;
62591;PMS5003;48659;41.622;2.276;2022-11-27T04:58:07;26;24;
62591;PMS5003;48659;41.622;2.276;2022-11-27T05:00:34;21;20;
62591;PMS5003;48659;41.622;2.276;2022-11-27T05:03:02;29;28;
62591;PMS5003;48659;41.622;2.276;2022-11-27T05:05:29;30;28;
62591;PMS5003;48659;41.622;2.276;2022-11-27T05:07:57;30;26;
62591;PMS5003;48659;41.622;2.276;2022-11-27T05:10:25;23;21;
62591;PMS5003;48659;41.622;2.276;2022-11-27T05:12:52;24;23;
62591;PMS5003;48659;41.622;2.276;2022-11-27T05:15:19;28;25;
62591;PMS5003;48659;41.622;2.276;2022-11-27T05:17:47;26;24;
62591;PMS5003;48659;41.622;2.276;2022-11-27T05:20:14;25;23;
62591;PMS5003;48659;41.622;2.276;2022-11-27T05:22:42;26;24;
62591;PMS5003;48659;41.622;2.276;2022-11-27T05:25:09;29;25;
62591;PMS5003;48659;41.622;2.276;2022-11-27T05:27:36;25;25;
62591;PMS5003;48659;41.622;2.276;2022-11-27T05:30:07;30;27;
62591;PMS5003;48659;41.622;2.276;2022-11-27T05:32:35;25;24;
62591;PMS5003;48659;41.622;2.276;2022-11-27T05:35:07;25;25;
62591;PMS5003;48659;41.622;2.276;2022-11-27T05:37:35;30;27;
62591;PMS5003;48659;41.622;2.276;2022-11-27T05:40:02;24;24;
62591;PMS5003;48659;41.622;2.276;2022-11-27T05:42:30;28;25;
62591;PMS5003;48659;41.622;2.276;2022-11-27T05:44:57;31;26;
62591;PMS5003;48659;41.622;2.276;2022-11-27T05:47:25;29;28;
62591;PMS5003;48659;41.622;2.276;2022-11-27T05:49:52;30;28;
62591;PMS5003;48659;41.622;2.276;2022-11-27T05:52:19;33;29;
62591;PMS5003;48659;41.622;2.276;2022-11-27T05:54:47;26;26;
62591;PMS5003;48659;41.622;2.276;2022-11-27T05:57:14;25;21;
62591;PMS5003;48659;41.622;2.276;2022-11-27T05:59:42;23;22;
62591;PMS5003;48659;41.622;2.276;2022-11-27T06:02:09;21;19;
62591;PMS5003;48659;41.622;2.276;2022-11-27T06:04:36;17;17;
62591;PMS5003;48659;41.622;2.276;2022-11-27T06:07:04;18;18;
62591;PMS5003;48659;41.622;2.276;2022-11-27T06:09:32;25;22;
62591;PMS5003;48659;41.622;2.276;2022-11-27T06:12:07;20;19;
62591;PMS5003;48659;41.622;2.276;2022-11-27T06:14:34;17;15;
62591;PMS5003;48659;41.622;2.276;2022-11-27T06:17:03;18;14;
62591;PMS5003;48659;41.622;2.276;2022-11-27T06:19:30;18;17;
62591;PMS5003;48659;41.622;2.276;2022-11-27T06:22:11;15;15;
62591;PMS5003;48659;41.622;2.276;2022-11-27T06:24:39;23;20;
62591;PMS5003;48659;41.622;2.276;2022-11-27T06:27:06;14;13;
62591;PMS5003;48659;41.622;2.276;2022-11-27T06:29:33;15;13;
62591;PMS5003;48659;41.622;2.276;2022-11-27T06:32:01;16;14;
62591;PMS5003;48659;41.622;2.276;2022-11-27T06:34:29;12;10;
62591;PMS5003;48659;41.622;2.276;2022-11-27T06:36:56;12;11;
62591;PMS5003;48659;41.622;2.276;2022-11-27T06:39:23;11;11;
62591;PMS5003;48659;41.622;2.276;2022-11-27T06:41:50;14;9;
62591;PMS5003;48659;41.622;2.276;2022-11-27T06:44:17;9;9;
62591;PMS5003;48659;41.622;2.276;2022-11-27T06:46:44;11;11;
62591;PMS5003;48659;41.622;2.276;2022-11-27T06:49:11;12;12;
62591;PMS5003;48659;41.622;2.276;2022-11-27T06:51:39;14;14;
62591;PMS5003;48659;41.622;2.276;2022-11-27T06:54:07;17;16;
62591;PMS5003;48659;41.622;2.276;2022-11-27T06:56:34;14;13;
62591;PMS5003;48659;41.622;2.276;2022-11-27T06:59:02;15;15;
62591;PMS5003;48659;41.622;2.276;2022-11-27T07:01:30;16;14;
62591;PMS5003;48659;41.622;2.276;2022-11-27T07:03:57;21;17;
62591;PMS5003;48659;41.622;2.276;2022-11-27T07:06:25;18;17;
62591;PMS5003;48659;41.622;2.276;2022-11-27T07:08:53;26;25;
62591;PMS5003;48659;41.622;2.276;2022-11-27T07:11:21;21;19;
62591;PMS5003;48659;41.622;2.276;2022-11-27T07:13:51;18;17;
62591;PMS5003;48659;41.622;2.276;2022-11-27T07:16:22;15;15;
62591;PMS5003;48659;41.622;2.276;2022-11-27T07:18:51;16;16;
62591;PMS5003;48659;41.622;2.276;2022-11-27T07:21:20;15;15;
62591;PMS5003;48659;41.622;2.276;2022-11-27T07:23:48;17;17;
62591;PMS5003;48659;41.622;2.276;2022-11-27T07:26:16;18;17;
62591;PMS5003;48659;41.622;2.276;2022-11-27T07:28:45;22;20;
62591;PMS5003;48659;41.622;2.276;2022-11-27T07:31:14;27;27;
62591;PMS5003;48659;41.622;2.276;2022-11-27T07:33:43;23;23;
62591;PMS5003;48659;41.622;2.276;2022-11-27T07:36:12;22;22;
62591;PMS5003;48659;41.622;2.276;2022-11-27T07:38:41;29;24;
62591;PMS5003;48659;41.622;2.276;2022-11-27T07:41:10;30;29;
62591;PMS5003;48659;41.622;2.276;2022-11-27T07:43:40;28;21;
62591;PMS5003;48659;41.622;2.276;2022-11-27T07:46:10;29;27;
62591;PMS5003;48659;41.622;2.276;2022-11-27T07:48:39;41;37;
62591;PMS5003;48659;41.622;2.276;2022-11-27T07:51:07;38;31;
62591;PMS5003;48659;41.622;2.276;2022-11-27T07:53:36;39;32;
62591;PMS5003;48659;41.622;2.276;2022-11-27T07:56:06;55;49;
62591;PMS5003;48659;41.622;2.276;2022-11-27T07:58:36;53;49;
62591;PMS5003;48659;41.622;2.276;2022-11-27T08:01:04;56;51;
62591;PMS5003;48659;41.622;2.276;2022-11-27T08:03:33;45;43;
62591;PMS5003;48659;41.622;2.276;2022-11-27T08:06:01;58;54;
62591;PMS5003;48659;41.622;2.276;2022-11-27T08:08:28;59;52;
62591;PMS5003;48659;41.622;2.276;2022-11-27T08:10:55;42;39;
62591;PMS5003;48659;41.622;2.276;2022-11-27T08:13:22;45;41;
62591;PMS5003;48659;41.622;2.276;2022-11-27T08:15:50;45;39;
62591;PMS5003;48659;41.622;2.276;2022-11-27T08:18:17;51;44;
62591;PMS5003;48659;41.622;2.276;2022-11-27T08:20:44;48;47;
62591;PMS5003;48659;41.622;2.276;2022-11-27T08:23:12;49;46;
62591;PMS5003;48659;41.622;2.276;2022-11-27T08:25:39;53;48;
62591;PMS5003;48659;41.622;2.276;2022-11-27T08:28:07;51;50;
62591;PMS5003;48659;41.622;2.276;2022-11-27T08:30:34;53;48;
62591;PMS5003;48659;41.622;2.276;2022-11-27T08:33:02;47;42;
62591;PMS5003;48659;41.622;2.276;2022-11-27T08:35:29;46;43;
62591;PMS5003;48659;41.622;2.276;2022-11-27T08:37:56;49;49;
62591;PMS5003;48659;41.622;2.276;2022-11-27T08:40:24;57;52;
62591;PMS5003;48659;41.622;2.276;2022-11-27T08:42:51;46;43;
62591;PMS5003;48659;41.622;2.276;2022-11-27T08:45:18;49;47;
62591;PMS5003;48659;41.622;2.276;2022-11-27T08:47:45;51;47;
62591;PMS5003;48659;41.622;2.276;2022-11-27T08:50:13;52;47;
62591;PMS5003;48659;41.622;2.276;2022-11-27T08:52:40;51;48;
62591;PMS5003;48659;41.622;2.276;2022-11-27T08:55:07;56;50;
62591;PMS5003;48659;41.622;2.276;2022-11-27T08:57:35;52;49;
62591;PMS5003;48659;41.622;2.276;2022-11-27T09:00:04;46;42;
62591;PMS5003;48659;41.622;2.276;2022-11-27T09:02:32;36;36;
62591;PMS5003;48659;41.622;2.276;2022-11-27T09:05:00;39;37;
62591;PMS5003;48659;41.622;2.276;2022-11-27T09:07:30;45;41;
62591;PMS5003;48659;41.622;2.276;2022-11-27T09:09:57;45;40;
62591;PMS5003;48659;41.622;2.276;2022-11-27T09:12:25;43;40;
62591;PMS5003;48659;41.622;2.276;2022-11-27T09:14:53;41;38;
62591;PMS5003;48659;41.622;2.276;2022-11-27T09:17:21;51;48;
62591;PMS5003;48659;41.622;2.276;2022-11-27T09:19:49;48;48;
62591;PMS5003;48659;41.622;2.276;2022-11-27T09:22:16;51;46;
62591;PMS5003;48659;41.622;2.276;2022-11-27T09:24:43;58;54;
62591;PMS5003;48659;41.622;2.276;2022-11-27T09:27:11;54;48;
62591;PMS5003;48659;41.622;2.276;2022-11-27T09:29:38;57;53;
62591;PMS5003;48659;41.622;2.276;2022-11-27T09:32:06;56;53;
62591;PMS5003;48659;41.622;2.276;2022-11-27T09:34:34;53;47;
62591;PMS5003;48659;41.622;2.276;2022-11-27T09:37:06;52;48;
62591;PMS5003;48659;41.622;2.276;2022-11-27T09:39:34;46;45;
62591;PMS5003;48659;41.622;2.276;2022-11-27T09:42:06;56;54;
62591;PMS5003;48659;41.622;2.276;2022-11-27T09:44:45;51;48;
62591;PMS5003;48659;41.622;2.276;2022-11-27T09:47:18;62;57;
62591;PMS5003;48659;41.622;2.276;2022-11-27T09:49:50;68;64;
62591;PMS5003;48659;41.622;2.276;2022-11-27T09:52:21;66;62;
62591;PMS5003;48659;41.622;2.276;2022-11-27T09:54:54;67;59;
62591;PMS5003;48659;41.622;2.276;2022-11-27T09:57:28;74;67;
62591;PMS5003;48659;41.622;2.276;2022-11-27T10:00:11;60;55;
62591;PMS5003;48659;41.622;2.276;2022-11-27T10:02:42;51;48;
62591;PMS5003;48659;41.622;2.276;2022-11-27T10:05:15;44;42;
62591;PMS5003;48659;41.622;2.276;2022-11-27T10:07:50;41;40;
62591;PMS5003;48659;41.622;2.276;2022-11-27T10:10:38;44;37;
62591;PMS5003;48659;41.622;2.276;2022-11-27T10:13:13;34;33;
62591;PMS5003;48659;41.622;2.276;2022-11-27T10:15:51;43;39;
62591;PMS5003;48659;41.622;2.276;2022-11-27T10:18:38;37;34;
62591;PMS5003;48659;41.622;2.276;2022-11-27T10:21:09;37;34;
62591;PMS5003;48659;41.622;2.276;2022-11-27T10:23:44;45;39;
62591;PMS5003;48659;41.622;2.276;2022-11-27T10:26:17;39;36;
62591;PMS5003;48659;41.622;2.276;2022-11-27T10:28:50;38;34;
62591;PMS5003;48659;41.622;2.276;2022-11-27T10:31:29;34;30;
62591;PMS5003;48659;41.622;2.276;2022-11-27T10:34:01;37;33;
62591;PMS5003;48659;41.622;2.276;2022-11-27T10:36:33;37;35;
62591;PMS5003;48659;41.622;2.276;2022-11-27T10:39:10;50;42;
62591;PMS5003;48659;41.622;2.276;2022-11-27T10:41:43;45;39;
62591;PMS5003;48659;41.622;2.276;2022-11-27T10:44:25;48;45;
62591;PMS5003;48659;41.622;2.276;2022-11-27T10:46:56;56;51;
62591;PMS5003;48659;41.622;2.276;2022-11-27T10:49:27;56;49;
62591;PMS5003;48659;41.622;2.276;2022-11-27T10:51:54;55;51;
62591;PMS5003;48659;41.622;2.276;2022-11-27T10:54:24;56;51;
62591;PMS5003;48659;41.622;2.276;2022-11-27T10:57:07;50;48;
62591;PMS5003;48659;41.622;2.276;2022-11-27T10:59:53;50;47;
62591;PMS5003;48659;41.622;2.276;2022-11-27T11:02:30;46;43;
62591;PMS5003;48659;41.622;2.276;2022-11-27T11:05:08;49;43;
62591;PMS5003;48659;41.622;2.276;2022-11-27T11:07:38;38;34;
62591;PMS5003;48659;41.622;2.276;2022-11-27T11:10:15;39;39;
62591;PMS5003;48659;41.622;2.276;2022-11-27T11:13:02;46;42;
62591;PMS5003;48659;41.622;2.276;2022-11-27T11:15:30;38;37;
62591;PMS5003;48659;41.622;2.276;2022-11-27T11:17:58;37;35;
62591;PMS5003;48659;41.622;2.276;2022-11-27T11:20:26;39;32;
62591;PMS5003;48659;41.622;2.276;2022-11-27T11:22:53;36;35;
62591;PMS5003;48659;41.622;2.276;2022-11-27T11:25:20;29;29;
62591;PMS5003;48659;41.622;2.276;2022-11-27T11:27:49;39;36;
62591;PMS5003;48659;41.622;2.276;2022-11-27T11:30:19;35;33;
62591;PMS5003;48659;41.622;2.276;2022-11-27T11:32:49;33;30;
62591;PMS5003;48659;41.622;2.276;2022-11-27T11:35:25;41;40;
62591;PMS5003;48659;41.622;2.276;2022-11-27T11:37:55;39;39;
62591;PMS5003;48659;41.622;2.276;2022-11-27T11:40:24;33;32;
62591;PMS5003;48659;41.622;2.276;2022-11-27T11:42:55;28;25;
62591;PMS5003;48659;41.622;2.276;2022-11-27T11:45:25;19;18;
62591;PMS5003;48659;41.622;2.276;2022-11-27T11:47:54;16;15;
62591;PMS5003;48659;41.622;2.276;2022-11-27T11:50:26;18;17;
62591;PMS5003;48659;41.622;2.276;2022-11-27T11:52:57;15;15;
62591;PMS5003;48659;41.622;2.276;2022-11-27T11:55:31;22;19;
62591;PMS5003;48659;41.622;2.276;2022-11-27T11:58:08;19;17;
62591;PMS5003;48659;41.622;2.276;2022-11-27T12:00:53;16;15;
62591;PMS5003;48659;41.622;2.276;2022-11-27T12:03:34;14;14;
62591;PMS5003;48659;41.622;2.276;2022-11-27T12:06:28;19;15;
62591;PMS5003;48659;41.622;2.276;2022-11-27T12:09:06;12;10;
62591;PMS5003;48659;41.622;2.276;2022-11-27T12:11:45;13;13;
62591;PMS5003;48659;41.622;2.276;2022-11-27T12:14:23;28;24;
62591;PMS5003;48659;41.622;2.276;2022-11-27T12:17:03;13;13;
62591;PMS5003;48659;41.622;2.276;2022-11-27T12:19:51;10;7;
62591;PMS5003;48659;41.622;2.276;2022-11-27T12:22:34;17;17;
62591;PMS5003;48659;41.622;2.276;2022-11-27T12:25:18;15;11;
62591;PMS5003;48659;41.622;2.276;2022-11-27T12:27:54;12;11;
62591;PMS5003;48659;41.622;2.276;2022-11-27T12:30:39;17;13;
62591;PMS5003;48659;41.622;2.276;2022-11-27T12:33:16;15;11;
62591;PMS5003;48659;41.622;2.276;2022-11-27T12:35:58;13;11;
62591;PMS5003;48659;41.622;2.276;2022-11-27T12:38:47;12;12;
62591;PMS5003;48659;41.622;2.276;2022-11-27T12:41:44;18;17;
62591;PMS5003;48659;41.622;2.276;2022-11-27T12:44:23;12;11;
62591;PMS5003;48659;41.622;2.276;2022-11-27T12:47:00;14;13;
62591;PMS5003;48659;41.622;2.276;2022-11-27T12:49:33;13;12;
62591;PMS5003;48659;41.622;2.276;2022-11-27T12:52:08;19;19;
62591;PMS5003;48659;41.622;2.276;2022-11-27T12:54:42;13;10;
62591;PMS5003;48659;41.622;2.276;2022-11-27T12:57:16;24;23;
62591;PMS5003;48659;41.622;2.276;2022-11-27T12:59:48;12;11;
62591;PMS5003;48659;41.622;2.276;2022-11-27T13:02:23;13;13;
62591;PMS5003;48659;41.622;2.276;2022-11-27T13:04:56;18;16;
62591;PMS5003;48659;41.622;2.276;2022-11-27T13:07:29;18;17;
62591;PMS5003;48659;41.622;2.276;2022-11-27T13:10:08;17;16;
62591;PMS5003;48659;41.622;2.276;2022-11-27T13:12:43;19;17;
62591;PMS5003;48659;41.622;2.276;2022-11-27T13:15:20;16;15;
62591;PMS5003;48659;41.622;2.276;2022-11-27T13:17:54;18;16;
62591;PMS5003;48659;41.622;2.276;2022-11-27T13:20:28;18;18;
62591;PMS5003;48659;41.622;2.276;2022-11-27T13:23:02;11;11;
62591;PMS5003;48659;41.622;2.276;2022-11-27T13:25:29;16;13;
62591;PMS5003;48659;41.622;2.276;2022-11-27T13:28:00;12;12;
62591;PMS5003;48659;41.622;2.276;2022-11-27T13:30:31;14;12;
62591;PMS5003;48659;41.622;2.276;2022-11-27T13:33:02;11;10;
62591;PMS5003;48659;41.622;2.276;2022-11-27T13:35:38;11;11;
62591;PMS5003;48659;41.622;2.276;2022-11-27T13:38:08;11;11;
62591;PMS5003;48659;41.622;2.276;2022-11-27T13:40:39;9;9;
62591;PMS5003;48659;41.622;2.276;2022-11-27T13:43:17;11;10;
62591;PMS5003;48659;41.622;2.276;2022-11-27T13:45:47;10;10;
62591;PMS5003;48659;41.622;2.276;2022-11-27T13:48:21;10;9;
62591;PMS5003;48659;41.622;2.276;2022-11-27T13:50:55;9;9;
62591;PMS5003;48659;41.622;2.276;2022-11-27T13:53:32;9;9;
62591;PMS5003;48659;41.622;2.276;2022-11-27T13:56:00;14;14;
62591;PMS5003;48659;41.622;2.276;2022-11-27T13:58:30;11;10;
62591;PMS5003;48659;41.622;2.276;2022-11-27T14:01:10;14;14;
62591;PMS5003;48659;41.622;2.276;2022-11-27T14:03:40;13;13;
62591;PMS5003;48659;41.622;2.276;2022-11-27T14:06:16;16;15;
62591;PMS5003;48659;41.622;2.276;2022-11-27T14:08:50;22;20;
62591;PMS5003;48659;41.622;2.276;2022-11-27T14:11:30;16;16;
62591;PMS5003;48659;41.622;2.276;2022-11-27T14:14:00;15;14;
62591;PMS5003;48659;41.622;2.276;2022-11-27T14:16:37;14;12;
62591;PMS5003;48659;41.622;2.276;2022-11-27T14:19:19;12;11;
62591;PMS5003;48659;41.622;2.276;2022-11-27T14:21:51;22;17;
62591;PMS5003;48659;41.622;2.276;2022-11-27T14:24:22;17;15;
62591;PMS5003;48659;41.622;2.276;2022-11-27T14:26:52;14;12;
62591;PMS5003;48659;41.622;2.276;2022-11-27T14:29:21;9;9;
62591;PMS5003;48659;41.622;2.276;2022-11-27T14:31:58;13;12;
62591;PMS5003;48659;41.622;2.276;2022-11-27T14:34:27;9;9;
62591;PMS5003;48659;41.622;2.276;2022-11-27T14:36:54;10;8;
62591;PMS5003;48659;41.622;2.276;2022-11-27T14:39:26;15;12;
62591;PMS5003;48659;41.622;2.276;2022-11-27T14:41:56;13;12;
62591;PMS5003;48659;41.622;2.276;2022-11-27T14:44:26;12;10;
62591;PMS5003;48659;41.622;2.276;2022-11-27T14:46:54;11;9;
62591;PMS5003;48659;41.622;2.276;2022-11-27T14:49:25;12;10;
62591;PMS5003;48659;41.622;2.276;2022-11-27T14:51:55;7;6;
62591;PMS5003;48659;41.622;2.276;2022-11-27T14:54:33;15;14;
62591;PMS5003;48659;41.622;2.276;2022-11-27T14:57:17;11;10;
62591;PMS5003;48659;41.622;2.276;2022-11-27T14:59:59;12;10;
62591;PMS5003;48659;41.622;2.276;2022-11-27T15:02:28;13;13;
62591;PMS5003;48659;41.622;2.276;2022-11-27T15:05:01;10;10;
62591;PMS5003;48659;41.622;2.276;2022-11-27T15:07:31;13;11;
62591;PMS5003;48659;41.622;2.276;2022-11-27T15:10:16;10;10;
62591;PMS5003;48659;41.622;2.276;2022-11-27T15:12:48;16;14;
62591;PMS5003;48659;41.622;2.276;2022-11-27T15:15:17;13;13;
62591;PMS5003;48659;41.622;2.276;2022-11-27T15:17:49;29;29;
62591;PMS5003;48659;41.622;2.276;2022-11-27T15:20:20;13;12;
62591;PMS5003;48659;41.622;2.276;2022-11-27T15:22:51;7;6;
62591;PMS5003;48659;41.622;2.276;2022-11-27T15:25:28;9;6;
62591;PMS5003;48659;41.622;2.276;2022-11-27T15:28:01;10;8;
62591;PMS5003;48659;41.622;2.276;2022-11-27T15:30:29;10;9;
62591;PMS5003;48659;41.622;2.276;2022-11-27T15:32:56;7;5;
62591;PMS5003;48659;41.622;2.276;2022-11-27T15:35:25;7;7;
62591;PMS5003;48659;41.622;2.276;2022-11-27T15:37:54;10;8;
62591;PMS5003;48659;41.622;2.276;2022-11-27T15:40:27;7;6;
62591;PMS5003;48659;41.622;2.276;2022-11-27T15:42:58;7;7;
62591;PMS5003;48659;41.622;2.276;2022-11-27T15:45:27;7;7;
62591;PMS5003;48659;41.622;2.276;2022-11-27T15:47:57;8;6;
62591;PMS5003;48659;41.622;2.276;2022-11-27T15:50:26;11;9;
62591;PMS5003;48659;41.622;2.276;2022-11-27T15:52:54;10;8;
62591;PMS5003;48659;41.622;2.276;2022-11-27T15:55:22;5;5;
62591;PMS5003;48659;41.622;2.276;2022-11-27T15:57:50;6;4;
62591;PMS5003;48659;41.622;2.276;2022-11-27T16:00:18;6;6;
62591;PMS5003;48659;41.622;2.276;2022-11-27T16:02:46;31;20;
62591;PMS5003;48659;41.622;2.276;2022-11-27T16:05:13;8;8;
62591;PMS5003;48659;41.622;2.276;2022-11-27T16:07:40;9;9;
62591;PMS5003;48659;41.622;2.276;2022-11-27T16:10:08;10;8;
62591;PMS5003;48659;41.622;2.276;2022-11-27T16:12:36;11;11;
62591;PMS5003;48659;41.622;2.276;2022-11-27T16:15:04;10;10;
62591;PMS5003;48659;41.622;2.276;2022-11-27T16:17:32;11;11;
62591;PMS5003;48659;41.622;2.276;2022-11-27T16:20:10;15;15;
62591;PMS5003;48659;41.622;2.276;2022-11-27T16:22:38;15;13;
62591;PMS5003;48659;41.622;2.276;2022-11-27T16:25:06;13;11;
62591;PMS5003;48659;41.622;2.276;2022-11-27T16:27:34;11;11;
62591;PMS5003;48659;41.622;2.276;2022-11-27T16:30:02;14;13;
62591;PMS5003;48659;41.622;2.276;2022-11-27T16:32:31;11;10;
62591;PMS5003;48659;41.622;2.276;2022-11-27T16:35:00;9;8;
62591;PMS5003;48659;41.622;2.276;2022-11-27T16:37:27;11;9;
62591;PMS5003;48659;41.622;2.276;2022-11-27T16:39:54;9;9;
62591;PMS5003;48659;41.622;2.276;2022-11-27T16:42:21;11;10;
62591;PMS5003;48659;41.622;2.276;2022-11-27T16:44:48;9;8;
62591;PMS5003;48659;41.622;2.276;2022-11-27T16:47:15;9;9;